sensor_id;sensor_type;location;lat;lon;timestamp;temperature;humidity
18160;DHT22;9205;52.032;4.314;2023-06-14T00:00:07;20.90;1.00
18160;DHT22;9205;52.032;4.314;2023-06-14T00:02:38;20.90;1.00
18160;DHT22;9205;52.032;4.314;2023-06-14T00:05:07;20.90;1.00
18160;DHT22;9205;52.032;4.314;2023-06-14T00:07:39;20.80;1.00
18160;DHT22;9205;52.032;4.314;2023-06-14T00:10:10;20.80;1.00
18160;DHT22;9205;52.032;4.314;2023-06-14T00:12:40;20.80;1.00
18160;DHT22;9205;52.032;4.314;2023-06-14T00:15:09;20.70;1.00
18160;DHT22;9205;52.032;4.314;2023-06-14T00:17:39;20.70;1.00
18160;DHT22;9205;52.032;4.314;2023-06-14T00:20:08;20.60;1.00
18160;DHT22;9205;52.032;4.314;2023-06-14T00:22:40;20.60;1.00
18160;DHT22;9205;52.032;4.314;2023-06-14T00:25:12;20.60;1.00
18160;DHT22;9205;52.032;4.314;2023-06-14T00:27:41;20.50;1.00
18160;DHT22;9205;52.032;4.314;2023-06-14T00:30:11;20.50;1.00
18160;DHT22;9205;52.032;4.314;2023-06-14T00:32:43;20.50;1.00
18160;DHT22;9205;52.032;4.314;2023-06-14T00:35:11;20.50;1.00
18160;DHT22;9205;52.032;4.314;2023-06-14T00:37:39;20.50;1.00
18160;DHT22;9205;52.032;4.314;2023-06-14T00:40:09;20.50;1.00
18160;DHT22;9205;52.032;4.314;2023-06-14T00:42:37;20.40;1.00
18160;DHT22;9205;52.032;4.314;2023-06-14T00:45:08;20.40;1.00
18160;DHT22;9205;52.032;4.314;2023-06-14T00:47:38;20.40;1.00
18160;DHT22;9205;52.032;4.314;2023-06-14T00:50:10;20.30;1.00
18160;DHT22;9205;52.032;4.314;2023-06-14T00:52:40;20.20;1.00
18160;DHT22;9205;52.032;4.314;2023-06-14T00:55:09;20.20;1.00
18160;DHT22;9205;52.032;4.314;2023-06-14T00:57:38;20.20;1.00
18160;DHT22;9205;52.032;4.314;2023-06-14T01:00:08;20.20;1.00
18160;DHT22;9205;52.032;4.314;2023-06-14T01:02:38;20.10;1.00
18160;DHT22;9205;52.032;4.314;2023-06-14T01:05:09;20.10;1.00
18160;DHT22;9205;52.032;4.314;2023-06-14T01:08:00;20.10;1.00
18160;DHT22;9205;52.032;4.314;2023-06-14T01:10:46;20.00;1.00
18160;DHT22;9205;52.032;4.314;2023-06-14T01:13:27;20.00;1.00
18160;DHT22;9205;52.032;4.314;2023-06-14T01:15:59;20.00;1.00
18160;DHT22;9205;52.032;4.314;2023-06-14T01:18:30;20.00;1.00
18160;DHT22;9205;52.032;4.314;2023-06-14T01:20:58;20.00;1.00
18160;DHT22;9205;52.032;4.314;2023-06-14T01:23:27;19.90;1.00
18160;DHT22;9205;52.032;4.314;2023-06-14T01:25:59;19.90;1.00
18160;DHT22;9205;52.032;4.314;2023-06-14T01:28:31;19.90;1.00
18160;DHT22;9205;52.032;4.314;2023-06-14T01:31:02;19.80;1.00
18160;DHT22;9205;52.032;4.314;2023-06-14T01:33:31;19.80;1.00
18160;DHT22;9205;52.032;4.314;2023-06-14T01:36:01;19.80;1.00
18160;DHT22;9205;52.032;4.314;2023-06-14T01:38:33;19.70;1.00
18160;DHT22;9205;52.032;4.314;2023-06-14T01:41:09;19.70;1.00
18160;DHT22;9205;52.032;4.314;2023-06-14T01:43:38;19.70;1.00
18160;DHT22;9205;52.032;4.314;2023-06-14T01:46:08;19.60;1.00
18160;DHT22;9205;52.032;4.314;2023-06-14T01:48:37;19.50;1.00
18160;DHT22;9205;52.032;4.314;2023-06-14T01:51:05;19.60;1.00
18160;DHT22;9205;52.032;4.314;2023-06-14T01:53:34;19.50;1.00
18160;DHT22;9205;52.032;4.314;2023-06-14T01:56:03;19.40;1.00
18160;DHT22;9205;52.032;4.314;2023-06-14T01:58:32;19.40;1.00
18160;DHT22;9205;52.032;4.314;2023-06-14T02:01:03;19.40;1.00
18160;DHT22;9205;52.032;4.314;2023-06-14T02:03:32;19.50;1.00
18160;DHT22;9205;52.032;4.314;2023-06-14T02:06:08;19.40;1.00
18160;DHT22;9205;52.032;4.314;2023-06-14T02:08:37;19.40;1.00
18160;DHT22;9205;52.032;4.314;2023-06-14T02:11:05;19.40;1.00
18160;DHT22;9205;52.032;4.314;2023-06-14T02:13:35;19.30;1.00
18160;DHT22;9205;52.032;4.314;2023-06-14T02:16:03;19.30;1.00
18160;DHT22;9205;52.032;4.314;2023-06-14T02:18:31;19.20;1.00
18160;DHT22;9205;52.032;4.314;2023-06-14T02:20:59;19.20;1.00
18160;DHT22;9205;52.032;4.314;2023-06-14T02:23:26;19.20;1.00
18160;DHT22;9205;52.032;4.314;2023-06-14T02:26:00;19.20;1.00
18160;DHT22;9205;52.032;4.314;2023-06-14T02:28:30;19.20;1.00
18160;DHT22;9205;52.032;4.314;2023-06-14T02:30:59;19.10;1.00
18160;DHT22;9205;52.032;4.314;2023-06-14T02:33:28;19.00;1.00
18160;DHT22;9205;52.032;4.314;2023-06-14T02:35:56;19.00;1.00
18160;DHT22;9205;52.032;4.314;2023-06-14T02:38:26;19.00;1.00
18160;DHT22;9205;52.032;4.314;2023-06-14T02:40:58;18.90;1.00
18160;DHT22;9205;52.032;4.314;2023-06-14T02:43:29;18.80;1.00
18160;DHT22;9205;52.032;4.314;2023-06-14T02:45:57;18.90;1.00
18160;DHT22;9205;52.032;4.314;2023-06-14T02:48:25;18.80;1.00
18160;DHT22;9205;52.032;4.314;2023-06-14T02:50:56;18.80;1.00
18160;DHT22;9205;52.032;4.314;2023-06-14T02:53:24;18.80;1.00
18160;DHT22;9205;52.032;4.314;2023-06-14T02:55:55;18.70;1.00
18160;DHT22;9205;52.032;4.314;2023-06-14T02:58:25;18.70;1.00
18160;DHT22;9205;52.032;4.314;2023-06-14T03:00:53;18.70;1.00
18160;DHT22;9205;52.032;4.314;2023-06-14T03:03:22;18.60;1.00
18160;DHT22;9205;52.032;4.314;2023-06-14T03:05:54;18.60;1.00
18160;DHT22;9205;52.032;4.314;2023-06-14T03:08:32;18.60;1.00
18160;DHT22;9205;52.032;4.314;2023-06-14T03:11:08;18.50;1.00
18160;DHT22;9205;52.032;4.314;2023-06-14T03:13:38;18.50;1.00
18160;DHT22;9205;52.032;4.314;2023-06-14T03:16:06;18.50;1.00
18160;DHT22;9205;52.032;4.314;2023-06-14T03:18:37;18.50;1.00
18160;DHT22;9205;52.032;4.314;2023-06-14T03:21:07;18.50;1.00
18160;DHT22;9205;52.032;4.314;2023-06-14T03:23:41;18.50;1.00
18160;DHT22;9205;52.032;4.314;2023-06-14T03:26:14;18.40;1.00
18160;DHT22;9205;52.032;4.314;2023-06-14T03:28:46;18.40;1.00
18160;DHT22;9205;52.032;4.314;2023-06-14T03:31:16;18.40;1.00
18160;DHT22;9205;52.032;4.314;2023-06-14T03:33:45;18.50;1.00
18160;DHT22;9205;52.032;4.314;2023-06-14T03:36:14;18.40;1.00
18160;DHT22;9205;52.032;4.314;2023-06-14T03:38:41;18.40;1.00
18160;DHT22;9205;52.032;4.314;2023-06-14T03:41:10;18.40;1.00
18160;DHT22;9205;52.032;4.314;2023-06-14T03:43:39;18.40;1.00
18160;DHT22;9205;52.032;4.314;2023-06-14T03:46:08;18.40;1.00
18160;DHT22;9205;52.032;4.314;2023-06-14T03:48:40;18.40;1.00
18160;DHT22;9205;52.032;4.314;2023-06-14T03:51:07;18.40;1.00
18160;DHT22;9205;52.032;4.314;2023-06-14T03:53:38;18.40;1.00
18160;DHT22;9205;52.032;4.314;2023-06-14T03:56:06;18.30;1.00
18160;DHT22;9205;52.032;4.314;2023-06-14T03:58:40;18.30;1.00
18160;DHT22;9205;52.032;4.314;2023-06-14T04:01:10;18.30;1.00
18160;DHT22;9205;52.032;4.314;2023-06-14T04:03:38;18.30;1.00
18160;DHT22;9205;52.032;4.314;2023-06-14T04:06:07;18.30;1.00
18160;DHT22;9205;52.032;4.314;2023-06-14T04:08:35;18.30;1.00
18160;DHT22;9205;52.032;4.314;2023-06-14T04:11:11;18.30;1.00
18160;DHT22;9205;52.032;4.314;2023-06-14T04:13:41;18.30;1.00
18160;DHT22;9205;52.032;4.314;2023-06-14T04:16:11;18.30;1.00
18160;DHT22;9205;52.032;4.314;2023-06-14T04:18:39;18.30;1.00
18160;DHT22;9205;52.032;4.314;2023-06-14T04:21:07;18.20;1.00
18160;DHT22;9205;52.032;4.314;2023-06-14T04:23:34;18.30;1.00
18160;DHT22;9205;52.032;4.314;2023-06-14T04:26:04;18.20;1.00
18160;DHT22;9205;52.032;4.314;2023-06-14T04:28:32;18.20;1.00
18160;DHT22;9205;52.032;4.314;2023-06-14T04:31:03;18.20;1.00
18160;DHT22;9205;52.032;4.314;2023-06-14T04:33:34;18.20;1.00
18160;DHT22;9205;52.032;4.314;2023-06-14T04:36:09;18.20;1.00
18160;DHT22;9205;52.032;4.314;2023-06-14T04:38:39;18.30;1.00
18160;DHT22;9205;52.032;4.314;2023-06-14T04:41:08;18.20;1.00
18160;DHT22;9205;52.032;4.314;2023-06-14T04:43:38;18.20;1.00
18160;DHT22;9205;52.032;4.314;2023-06-14T04:46:07;18.20;1.00
18160;DHT22;9205;52.032;4.314;2023-06-14T04:48:40;18.20;1.00
18160;DHT22;9205;52.032;4.314;2023-06-14T04:51:10;18.20;1.00
18160;DHT22;9205;52.032;4.314;2023-06-14T04:53:39;18.20;1.00
18160;DHT22;9205;52.032;4.314;2023-06-14T04:56:06;18.30;1.00
18160;DHT22;9205;52.032;4.314;2023-06-14T04:58:35;18.30;1.00
18160;DHT22;9205;52.032;4.314;2023-06-14T05:01:04;18.20;1.00
18160;DHT22;9205;52.032;4.314;2023-06-14T05:03:32;18.30;1.00
18160;DHT22;9205;52.032;4.314;2023-06-14T05:06:02;18.20;1.00
18160;DHT22;9205;52.032;4.314;2023-06-14T05:08:30;18.30;1.00
18160;DHT22;9205;52.032;4.314;2023-06-14T05:10:58;18.30;1.00
18160;DHT22;9205;52.032;4.314;2023-06-14T05:13:26;18.30;1.00
18160;DHT22;9205;52.032;4.314;2023-06-14T05:15:55;18.30;1.00
18160;DHT22;9205;52.032;4.314;2023-06-14T05:18:23;18.30;1.00
18160;DHT22;9205;52.032;4.314;2023-06-14T05:20:51;18.40;1.00
18160;DHT22;9205;52.032;4.314;2023-06-14T05:23:21;18.30;1.00
18160;DHT22;9205;52.032;4.314;2023-06-14T05:25:50;18.40;1.00
18160;DHT22;9205;52.032;4.314;2023-06-14T05:28:18;18.50;1.00
18160;DHT22;9205;52.032;4.314;2023-06-14T05:30:46;18.50;1.00
18160;DHT22;9205;52.032;4.314;2023-06-14T05:33:14;18.40;1.00
18160;DHT22;9205;52.032;4.314;2023-06-14T05:35:41;18.50;1.00
18160;DHT22;9205;52.032;4.314;2023-06-14T05:38:11;18.50;1.00
18160;DHT22;9205;52.032;4.314;2023-06-14T05:40:40;18.50;1.00
18160;DHT22;9205;52.032;4.314;2023-06-14T05:43:08;18.50;1.00
18160;DHT22;9205;52.032;4.314;2023-06-14T05:45:36;18.50;1.00
18160;DHT22;9205;52.032;4.314;2023-06-14T05:48:04;18.60;1.00
18160;DHT22;9205;52.032;4.314;2023-06-14T05:50:34;18.60;1.00
18160;DHT22;9205;52.032;4.314;2023-06-14T05:53:02;18.60;1.00
18160;DHT22;9205;52.032;4.314;2023-06-14T05:55:30;18.60;1.00
18160;DHT22;9205;52.032;4.314;2023-06-14T05:57:59;18.60;1.00
18160;DHT22;9205;52.032;4.314;2023-06-14T06:00:28;18.60;1.00
18160;DHT22;9205;52.032;4.314;2023-06-14T06:03:03;18.70;1.00
18160;DHT22;9205;52.032;4.314;2023-06-14T06:05:35;18.70;1.00
18160;DHT22;9205;52.032;4.314;2023-06-14T06:08:03;18.70;1.00
18160;DHT22;9205;52.032;4.314;2023-06-14T06:10:32;18.80;1.00
18160;DHT22;9205;52.032;4.314;2023-06-14T06:13:03;18.80;1.00
18160;DHT22;9205;52.032;4.314;2023-06-14T06:15:37;18.80;1.00
18160;DHT22;9205;52.032;4.314;2023-06-14T06:18:05;19.00;1.00
18160;DHT22;9205;52.032;4.314;2023-06-14T06:20:33;19.00;1.00
18160;DHT22;9205;52.032;4.314;2023-06-14T06:23:05;19.00;1.00
18160;DHT22;9205;52.032;4.314;2023-06-14T06:25:33;19.10;1.00
18160;DHT22;9205;52.032;4.314;2023-06-14T06:28:12;19.10;1.00
18160;DHT22;9205;52.032;4.314;2023-06-14T06:30:40;19.20;1.00
18160;DHT22;9205;52.032;4.314;2023-06-14T06:33:08;19.20;1.00
18160;DHT22;9205;52.032;4.314;2023-06-14T06:35:36;19.20;1.00
18160;DHT22;9205;52.032;4.314;2023-06-14T06:38:03;19.30;1.00
18160;DHT22;9205;52.032;4.314;2023-06-14T06:40:31;19.30;1.00
18160;DHT22;9205;52.032;4.314;2023-06-14T06:42:59;19.30;1.00
18160;DHT22;9205;52.032;4.314;2023-06-14T06:45:29;19.40;1.00
18160;DHT22;9205;52.032;4.314;2023-06-14T06:47:56;19.40;1.00
18160;DHT22;9205;52.032;4.314;2023-06-14T06:50:24;19.40;1.00
18160;DHT22;9205;52.032;4.314;2023-06-14T06:52:57;19.50;1.00
18160;DHT22;9205;52.032;4.314;2023-06-14T06:55:24;19.50;1.00
18160;DHT22;9205;52.032;4.314;2023-06-14T06:57:53;19.60;1.00
18160;DHT22;9205;52.032;4.314;2023-06-14T07:00:23;19.60;1.00
18160;DHT22;9205;52.032;4.314;2023-06-14T07:02:53;19.70;1.00
18160;DHT22;9205;52.032;4.314;2023-06-14T07:05:26;19.70;1.00
18160;DHT22;9205;52.032;4.314;2023-06-14T07:07:53;19.80;1.00
18160;DHT22;9205;52.032;4.314;2023-06-14T07:10:21;19.80;1.00
18160;DHT22;9205;52.032;4.314;2023-06-14T07:12:50;19.90;1.00
18160;DHT22;9205;52.032;4.314;2023-06-14T07:15:18;20.00;1.00
18160;DHT22;9205;52.032;4.314;2023-06-14T07:17:46;20.00;1.00
18160;DHT22;9205;52.032;4.314;2023-06-14T07:20:15;20.10;1.00
18160;DHT22;9205;52.032;4.314;2023-06-14T07:22:43;20.20;1.00
18160;DHT22;9205;52.032;4.314;2023-06-14T07:25:12;20.20;1.00
18160;DHT22;9205;52.032;4.314;2023-06-14T07:27:40;20.20;1.00
18160;DHT22;9205;52.032;4.314;2023-06-14T07:30:09;20.20;1.00
18160;DHT22;9205;52.032;4.314;2023-06-14T07:32:38;20.30;1.00
18160;DHT22;9205;52.032;4.314;2023-06-14T07:35:06;20.30;1.00
18160;DHT22;9205;52.032;4.314;2023-06-14T07:37:43;20.40;1.00
18160;DHT22;9205;52.032;4.314;2023-06-14T07:40:13;20.40;1.00
18160;DHT22;9205;52.032;4.314;2023-06-14T07:42:43;20.50;1.00
18160;DHT22;9205;52.032;4.314;2023-06-14T07:45:13;20.60;1.00
18160;DHT22;9205;52.032;4.314;2023-06-14T07:47:41;20.60;1.00
18160;DHT22;9205;52.032;4.314;2023-06-14T07:50:10;20.60;1.00
18160;DHT22;9205;52.032;4.314;2023-06-14T07:52:41;20.70;1.00
18160;DHT22;9205;52.032;4.314;2023-06-14T07:55:09;20.80;1.00
18160;DHT22;9205;52.032;4.314;2023-06-14T07:57:37;20.80;1.00
18160;DHT22;9205;52.032;4.314;2023-06-14T08:00:06;20.90;1.00
18160;DHT22;9205;52.032;4.314;2023-06-14T08:02:40;21.00;1.00
18160;DHT22;9205;52.032;4.314;2023-06-14T08:05:09;21.10;1.00
18160;DHT22;9205;52.032;4.314;2023-06-14T08:07:40;21.10;1.00
18160;DHT22;9205;52.032;4.314;2023-06-14T08:10:09;21.10;1.00
18160;DHT22;9205;52.032;4.314;2023-06-14T08:12:38;21.10;1.00
18160;DHT22;9205;52.032;4.314;2023-06-14T08:15:07;21.10;1.00
18160;DHT22;9205;52.032;4.314;2023-06-14T08:17:35;21.10;1.00
18160;DHT22;9205;52.032;4.314;2023-06-14T08:20:04;21.20;1.00
18160;DHT22;9205;52.032;4.314;2023-06-14T08:22:33;21.30;1.00
18160;DHT22;9205;52.032;4.314;2023-06-14T08:25:04;21.30;1.00
18160;DHT22;9205;52.032;4.314;2023-06-14T08:27:36;21.40;1.00
18160;DHT22;9205;52.032;4.314;2023-06-14T08:30:08;21.60;1.00
18160;DHT22;9205;52.032;4.314;2023-06-14T08:32:40;21.60;1.00
18160;DHT22;9205;52.032;4.314;2023-06-14T08:35:09;21.70;1.00
18160;DHT22;9205;52.032;4.314;2023-06-14T08:37:41;21.80;1.00
18160;DHT22;9205;52.032;4.314;2023-06-14T08:40:19;21.80;1.00
18160;DHT22;9205;52.032;4.314;2023-06-14T08:42:53;21.70;1.00
18160;DHT22;9205;52.032;4.314;2023-06-14T08:45:21;21.90;1.00
18160;DHT22;9205;52.032;4.314;2023-06-14T08:47:51;22.00;1.00
18160;DHT22;9205;52.032;4.314;2023-06-14T08:50:24;22.10;1.00
18160;DHT22;9205;52.032;4.314;2023-06-14T08:52:57;22.20;1.00
18160;DHT22;9205;52.032;4.314;2023-06-14T08:55:31;22.30;1.00
18160;DHT22;9205;52.032;4.314;2023-06-14T08:58:02;22.40;1.00
18160;DHT22;9205;52.032;4.314;2023-06-14T09:03:15;22.40;1.00
18160;DHT22;9205;52.032;4.314;2023-06-14T09:05:43;22.50;1.00
18160;DHT22;9205;52.032;4.314;2023-06-14T09:08:11;22.60;1.00
18160;DHT22;9205;52.032;4.314;2023-06-14T09:10:41;22.70;1.00
18160;DHT22;9205;52.032;4.314;2023-06-14T09:13:09;22.70;1.00
18160;DHT22;9205;52.032;4.314;2023-06-14T09:15:37;22.70;1.00
18160;DHT22;9205;52.032;4.314;2023-06-14T09:18:10;22.80;1.00
18160;DHT22;9205;52.032;4.314;2023-06-14T09:20:40;22.80;1.00
18160;DHT22;9205;52.032;4.314;2023-06-14T09:23:08;22.90;1.00
18160;DHT22;9205;52.032;4.314;2023-06-14T09:25:46;23.00;1.00
18160;DHT22;9205;52.032;4.314;2023-06-14T09:28:17;23.20;1.00
18160;DHT22;9205;52.032;4.314;2023-06-14T09:30:50;23.20;1.00
18160;DHT22;9205;52.032;4.314;2023-06-14T09:33:18;23.30;1.00
18160;DHT22;9205;52.032;4.314;2023-06-14T09:35:50;23.30;1.00
18160;DHT22;9205;52.032;4.314;2023-06-14T09:38:19;23.30;1.00
18160;DHT22;9205;52.032;4.314;2023-06-14T09:40:52;23.50;1.00
18160;DHT22;9205;52.032;4.314;2023-06-14T09:43:21;23.60;1.00
18160;DHT22;9205;52.032;4.314;2023-06-14T09:45:52;23.60;1.00
18160;DHT22;9205;52.032;4.314;2023-06-14T09:48:22;23.60;1.00
18160;DHT22;9205;52.032;4.314;2023-06-14T09:50:57;23.70;1.00
18160;DHT22;9205;52.032;4.314;2023-06-14T09:53:30;23.70;1.00
18160;DHT22;9205;52.032;4.314;2023-06-14T09:56:08;23.90;1.00
18160;DHT22;9205;52.032;4.314;2023-06-14T09:58:42;23.90;1.00
18160;DHT22;9205;52.032;4.314;2023-06-14T10:01:12;23.90;1.00
18160;DHT22;9205;52.032;4.314;2023-06-14T10:03:41;23.90;1.00
18160;DHT22;9205;52.032;4.314;2023-06-14T10:06:11;23.90;1.00
18160;DHT22;9205;52.032;4.314;2023-06-14T10:08:40;24.00;1.00
18160;DHT22;9205;52.032;4.314;2023-06-14T10:11:14;24.00;1.00
18160;DHT22;9205;52.032;4.314;2023-06-14T10:13:45;24.10;1.00
18160;DHT22;9205;52.032;4.314;2023-06-14T10:16:23;24.30;1.00
18160;DHT22;9205;52.032;4.314;2023-06-14T10:19:07;24.30;1.00
18160;DHT22;9205;52.032;4.314;2023-06-14T10:21:51;24.30;1.00
18160;DHT22;9205;52.032;4.314;2023-06-14T10:24:29;24.30;1.00
18160;DHT22;9205;52.032;4.314;2023-06-14T10:27:01;24.30;1.00
18160;DHT22;9205;52.032;4.314;2023-06-14T10:29:29;24.40;1.00
18160;DHT22;9205;52.032;4.314;2023-06-14T10:32:00;24.50;1.00
18160;DHT22;9205;52.032;4.314;2023-06-14T10:37:33;24.50;1.00
18160;DHT22;9205;52.032;4.314;2023-06-14T10:38:31;24.50;1.00
18160;DHT22;9205;52.032;4.314;2023-06-14T10:41:01;24.60;1.00
18160;DHT22;9205;52.032;4.314;2023-06-14T10:43:34;24.70;1.00
18160;DHT22;9205;52.032;4.314;2023-06-14T10:46:16;24.80;1.00
18160;DHT22;9205;52.032;4.314;2023-06-14T10:49:04;24.80;1.00
18160;DHT22;9205;52.032;4.314;2023-06-14T10:51:39;24.90;1.00
18160;DHT22;9205;52.032;4.314;2023-06-14T10:54:12;25.10;1.00
18160;DHT22;9205;52.032;4.314;2023-06-14T10:56:46;25.10;1.00
18160;DHT22;9205;52.032;4.314;2023-06-14T10:59:17;25.10;1.00
18160;DHT22;9205;52.032;4.314;2023-06-14T11:01:55;25.30;1.00
18160;DHT22;9205;52.032;4.314;2023-06-14T11:04:44;25.40;1.00
18160;DHT22;9205;52.032;4.314;2023-06-14T11:07:35;25.60;1.00
18160;DHT22;9205;52.032;4.314;2023-06-14T11:10:19;26.10;1.00
18160;DHT22;9205;52.032;4.314;2023-06-14T11:12:59;26.50;1.00
18160;DHT22;9205;52.032;4.314;2023-06-14T11:15:31;26.90;1.00
18160;DHT22;9205;52.032;4.314;2023-06-14T11:18:06;26.80;1.00
18160;DHT22;9205;52.032;4.314;2023-06-14T11:20:36;27.00;1.00
18160;DHT22;9205;52.032;4.314;2023-06-14T11:23:04;27.10;1.00
18160;DHT22;9205;52.032;4.314;2023-06-14T11:25:32;27.00;1.00
18160;DHT22;9205;52.032;4.314;2023-06-14T11:28:00;27.10;1.00
18160;DHT22;9205;52.032;4.314;2023-06-14T11:30:30;27.50;1.00
18160;DHT22;9205;52.032;4.314;2023-06-14T11:32:59;27.80;1.00
18160;DHT22;9205;52.032;4.314;2023-06-14T11:35:26;27.80;1.00
18160;DHT22;9205;52.032;4.314;2023-06-14T11:37:55;28.00;1.00
18160;DHT22;9205;52.032;4.314;2023-06-14T11:40:25;28.10;1.00
18160;DHT22;9205;52.032;4.314;2023-06-14T11:42:58;28.30;1.00
18160;DHT22;9205;52.032;4.314;2023-06-14T11:45:28;28.40;1.00
18160;DHT22;9205;52.032;4.314;2023-06-14T11:47:59;28.40;1.00
18160;DHT22;9205;52.032;4.314;2023-06-14T11:50:28;28.80;1.00
18160;DHT22;9205;52.032;4.314;2023-06-14T11:52:56;28.70;1.00
18160;DHT22;9205;52.032;4.314;2023-06-14T11:55:36;28.70;1.00
18160;DHT22;9205;52.032;4.314;2023-06-14T11:58:08;28.80;1.00
18160;DHT22;9205;52.032;4.314;2023-06-14T12:00:42;28.90;1.00
18160;DHT22;9205;52.032;4.314;2023-06-14T12:03:11;28.70;1.00
18160;DHT22;9205;52.032;4.314;2023-06-14T12:05:39;28.80;1.00
18160;DHT22;9205;52.032;4.314;2023-06-14T12:08:08;28.90;1.00
18160;DHT22;9205;52.032;4.314;2023-06-14T12:10:43;29.10;1.00
18160;DHT22;9205;52.032;4.314;2023-06-14T12:13:11;28.90;1.00
18160;DHT22;9205;52.032;4.314;2023-06-14T12:15:40;28.90;1.00
18160;DHT22;9205;52.032;4.314;2023-06-14T12:18:10;29.10;1.00
18160;DHT22;9205;52.032;4.314;2023-06-14T12:20:39;29.00;1.00
18160;DHT22;9205;52.032;4.314;2023-06-14T12:23:07;28.90;1.00
18160;DHT22;9205;52.032;4.314;2023-06-14T12:25:35;28.70;1.00
18160;DHT22;9205;52.032;4.314;2023-06-14T12:28:06;29.00;1.00
18160;DHT22;9205;52.032;4.314;2023-06-14T12:30:39;28.90;1.00
18160;DHT22;9205;52.032;4.314;2023-06-14T12:33:07;29.10;1.00
18160;DHT22;9205;52.032;4.314;2023-06-14T12:35:35;28.70;1.00
18160;DHT22;9205;52.032;4.314;2023-06-14T12:38:03;28.70;1.00
18160;DHT22;9205;52.032;4.314;2023-06-14T12:40:32;29.00;1.00
18160;DHT22;9205;52.032;4.314;2023-06-14T12:43:04;28.60;1.00
18160;DHT22;9205;52.032;4.314;2023-06-14T12:45:33;28.80;1.00
18160;DHT22;9205;52.032;4.314;2023-06-14T12:48:04;28.40;1.00
18160;DHT22;9205;52.032;4.314;2023-06-14T12:50:34;28.50;1.00
18160;DHT22;9205;52.032;4.314;2023-06-14T12:53:02;28.20;1.00
18160;DHT22;9205;52.032;4.314;2023-06-14T12:55:30;28.40;1.00
18160;DHT22;9205;52.032;4.314;2023-06-14T12:57:58;28.30;1.00
18160;DHT22;9205;52.032;4.314;2023-06-14T13:00:26;28.20;1.00
18160;DHT22;9205;52.032;4.314;2023-06-14T13:02:58;28.70;1.00
18160;DHT22;9205;52.032;4.314;2023-06-14T13:05:28;28.70;1.00
18160;DHT22;9205;52.032;4.314;2023-06-14T13:07:59;28.30;1.00
18160;DHT22;9205;52.032;4.314;2023-06-14T13:10:32;28.50;1.00
18160;DHT22;9205;52.032;4.314;2023-06-14T13:13:03;28.40;1.00
18160;DHT22;9205;52.032;4.314;2023-06-14T13:15:31;29.10;1.00
18160;DHT22;9205;52.032;4.314;2023-06-14T13:17:59;29.20;1.00
18160;DHT22;9205;52.032;4.314;2023-06-14T13:20:39;28.90;1.00
18160;DHT22;9205;52.032;4.314;2023-06-14T13:23:09;28.90;1.00
18160;DHT22;9205;52.032;4.314;2023-06-14T13:25:37;28.90;1.00
18160;DHT22;9205;52.032;4.314;2023-06-14T13:28:07;29.00;1.00
18160;DHT22;9205;52.032;4.314;2023-06-14T13:30:35;29.20;1.00
18160;DHT22;9205;52.032;4.314;2023-06-14T13:33:04;28.90;1.00
18160;DHT22;9205;52.032;4.314;2023-06-14T13:35:33;29.00;1.00
18160;DHT22;9205;52.032;4.314;2023-06-14T13:38:07;28.90;1.00
18160;DHT22;9205;52.032;4.314;2023-06-14T13:40:36;28.80;1.00
18160;DHT22;9205;52.032;4.314;2023-06-14T13:43:04;29.30;1.00
18160;DHT22;9205;52.032;4.314;2023-06-14T13:45:31;29.10;1.00
18160;DHT22;9205;52.032;4.314;2023-06-14T13:47:58;29.40;1.00
18160;DHT22;9205;52.032;4.314;2023-06-14T13:50:29;29.40;1.00
18160;DHT22;9205;52.032;4.314;2023-06-14T13:53:01;29.20;1.00
18160;DHT22;9205;52.032;4.314;2023-06-14T13:55:29;28.90;1.00
18160;DHT22;9205;52.032;4.314;2023-06-14T13:57:57;28.70;1.00
18160;DHT22;9205;52.032;4.314;2023-06-14T14:00:25;28.90;1.00
18160;DHT22;9205;52.032;4.314;2023-06-14T14:02:54;29.10;1.00
18160;DHT22;9205;52.032;4.314;2023-06-14T14:05:23;29.40;1.00
18160;DHT22;9205;52.032;4.314;2023-06-14T14:07:55;29.30;1.00
18160;DHT22;9205;52.032;4.314;2023-06-14T14:10:34;29.10;1.00
18160;DHT22;9205;52.032;4.314;2023-06-14T14:13:03;29.30;1.00
18160;DHT22;9205;52.032;4.314;2023-06-14T14:15:31;29.10;1.00
18160;DHT22;9205;52.032;4.314;2023-06-14T14:18:00;28.60;1.00
18160;DHT22;9205;52.032;4.314;2023-06-14T14:20:31;28.30;1.00
18160;DHT22;9205;52.032;4.314;2023-06-14T14:23:02;28.80;1.00
18160;DHT22;9205;52.032;4.314;2023-06-14T14:25:29;28.80;1.00
18160;DHT22;9205;52.032;4.314;2023-06-14T14:27:58;28.80;1.00
18160;DHT22;9205;52.032;4.314;2023-06-14T14:30:25;28.60;1.00
18160;DHT22;9205;52.032;4.314;2023-06-14T14:32:55;28.80;1.00
18160;DHT22;9205;52.032;4.314;2023-06-14T14:35:22;28.70;1.00
18160;DHT22;9205;52.032;4.314;2023-06-14T14:37:52;28.50;1.00
18160;DHT22;9205;52.032;4.314;2023-06-14T14:40:19;28.60;1.00
18160;DHT22;9205;52.032;4.314;2023-06-14T14:42:48;28.40;1.00
18160;DHT22;9205;52.032;4.314;2023-06-14T14:45:19;28.30;1.00
18160;DHT22;9205;52.032;4.314;2023-06-14T14:47:48;28.60;1.00
18160;DHT22;9205;52.032;4.314;2023-06-14T14:50:15;28.60;1.00
18160;DHT22;9205;52.032;4.314;2023-06-14T14:52:43;28.70;1.00
18160;DHT22;9205;52.032;4.314;2023-06-14T14:55:11;28.90;1.00
18160;DHT22;9205;52.032;4.314;2023-06-14T14:57:39;29.00;1.00
18160;DHT22;9205;52.032;4.314;2023-06-14T15:00:10;28.70;1.00
18160;DHT22;9205;52.032;4.314;2023-06-14T15:02:41;28.70;1.00
18160;DHT22;9205;52.032;4.314;2023-06-14T15:05:09;28.80;1.00
18160;DHT22;9205;52.032;4.314;2023-06-14T15:07:37;29.10;1.00
18160;DHT22;9205;52.032;4.314;2023-06-14T15:10:07;28.60;1.00
18160;DHT22;9205;52.032;4.314;2023-06-14T15:12:36;28.70;1.00
18160;DHT22;9205;52.032;4.314;2023-06-14T15:15:05;28.40;1.00
18160;DHT22;9205;52.032;4.314;2023-06-14T15:17:35;28.30;1.00
18160;DHT22;9205;52.032;4.314;2023-06-14T15:20:08;28.20;1.00
18160;DHT22;9205;52.032;4.314;2023-06-14T15:22:38;28.50;1.00
18160;DHT22;9205;52.032;4.314;2023-06-14T15:25:07;28.50;1.00
18160;DHT22;9205;52.032;4.314;2023-06-14T15:27:36;28.60;1.00
18160;DHT22;9205;52.032;4.314;2023-06-14T15:30:05;28.60;1.00
18160;DHT22;9205;52.032;4.314;2023-06-14T15:32:34;28.30;1.00
18160;DHT22;9205;52.032;4.314;2023-06-14T15:35:03;28.40;1.00
18160;DHT22;9205;52.032;4.314;2023-06-14T15:37:33;28.40;1.00
18160;DHT22;9205;52.032;4.314;2023-06-14T15:40:01;28.60;1.00
18160;DHT22;9205;52.032;4.314;2023-06-14T15:42:30;28.50;1.00
18160;DHT22;9205;52.032;4.314;2023-06-14T15:44:58;28.50;1.00
18160;DHT22;9205;52.032;4.314;2023-06-14T15:47:26;28.40;1.00
18160;DHT22;9205;52.032;4.314;2023-06-14T15:49:54;28.60;1.00
18160;DHT22;9205;52.032;4.314;2023-06-14T15:52:23;28.20;1.00
18160;DHT22;9205;52.032;4.314;2023-06-14T15:54:54;28.40;1.00
18160;DHT22;9205;52.032;4.314;2023-06-14T15:58:09;28.40;1.00
18160;DHT22;9205;52.032;4.314;2023-06-14T16:00:52;28.20;1.00
18160;DHT22;9205;52.032;4.314;2023-06-14T16:03:21;28.20;1.00
18160;DHT22;9205;52.032;4.314;2023-06-14T16:05:48;28.10;1.00
18160;DHT22;9205;52.032;4.314;2023-06-14T16:08:17;28.40;1.00
18160;DHT22;9205;52.032;4.314;2023-06-14T16:10:56;28.10;1.00
18160;DHT22;9205;52.032;4.314;2023-06-14T16:13:47;28.10;1.00
18160;DHT22;9205;52.032;4.314;2023-06-14T16:16:17;28.00;1.00
18160;DHT22;9205;52.032;4.314;2023-06-14T16:18:47;28.20;1.00
18160;DHT22;9205;52.032;4.314;2023-06-14T16:21:14;28.40;1.00
18160;DHT22;9205;52.032;4.314;2023-06-14T16:23:43;28.00;1.00
18160;DHT22;9205;52.032;4.314;2023-06-14T16:26:14;28.10;1.00